createdAt,value
2018-01-25T00:01:42.914Z,3.97
2018-01-25T00:04:10.375Z,3.60
2018-01-25T00:06:37.826Z,3.83
2018-01-25T00:09:05.370Z,3.40
2018-01-25T00:11:32.879Z,3.53
2018-01-25T00:14:00.431Z,3.70
2018-01-25T00:16:27.908Z,3.60
2018-01-25T00:18:55.461Z,3.70
2018-01-25T00:21:23.002Z,3.50
2018-01-25T00:23:50.497Z,3.43
2018-01-25T00:26:17.996Z,3.70
2018-01-25T00:28:45.547Z,3.60
2018-01-25T00:31:13.056Z,3.40
2018-01-25T00:33:40.682Z,3.23
2018-01-25T00:36:08.182Z,3.53
2018-01-25T00:38:36.351Z,3.60
2018-01-25T00:41:03.827Z,3.30
2018-01-25T00:43:31.330Z,3.40
2018-01-25T00:45:58.786Z,3.30
2018-01-25T00:48:26.273Z,3.60
2018-01-25T00:50:53.734Z,3.47
2018-01-25T00:53:21.219Z,3.87
2018-01-25T00:55:48.741Z,3.40
2018-01-25T00:58:16.272Z,3.30
2018-01-25T01:00:43.751Z,3.30
2018-01-25T01:03:11.289Z,3.50
2018-01-25T01:05:38.796Z,3.13
2018-01-25T01:08:06.277Z,3.10
2018-01-25T01:10:33.762Z,3.20
2018-01-25T01:13:01.339Z,3.03
2018-01-25T01:15:28.847Z,3.30
2018-01-25T01:17:56.373Z,2.83
2018-01-25T01:20:23.899Z,3.30
2018-01-25T01:22:51.431Z,3.10
2018-01-25T01:25:18.902Z,3.10
2018-01-25T01:27:46.434Z,3.20
2018-01-25T01:30:13.911Z,3.20
2018-01-25T01:32:41.425Z,3.30
2018-01-25T01:35:09.057Z,3.17
2018-01-25T01:37:36.534Z,3.10
2018-01-25T01:40:04.023Z,3.17
2018-01-25T01:42:31.471Z,3.20
2018-01-25T01:44:59.185Z,3.73
2018-01-25T01:47:26.666Z,3.07
2018-01-25T01:49:54.122Z,3.30
2018-01-25T01:52:21.619Z,3.23
2018-01-25T01:54:49.096Z,3.30
2018-01-25T01:57:16.767Z,3.20
2018-01-25T01:59:44.228Z,3.30
2018-01-25T02:02:11.722Z,3.10
2018-01-25T02:04:39.187Z,3.57
2018-01-25T02:07:06.670Z,3.30
2018-01-25T02:09:34.145Z,3.20
2018-01-25T02:12:01.630Z,3.00
2018-01-25T02:14:29.117Z,3.20
2018-01-25T02:16:56.582Z,3.13
2018-01-25T02:19:24.039Z,2.93
2018-01-25T02:21:51.562Z,3.27
2018-01-25T02:24:19.071Z,2.60
2018-01-25T02:26:46.575Z,3.10
2018-01-25T02:29:14.053Z,3.03
2018-01-25T02:31:41.507Z,3.30
2018-01-25T02:34:08.962Z,3.20
2018-01-25T02:36:36.523Z,3.10
2018-01-25T02:39:04.021Z,2.90
2018-01-25T02:41:31.952Z,2.93
2018-01-25T02:43:59.435Z,3.37
2018-01-25T02:46:26.929Z,3.13
2018-01-25T02:48:54.408Z,3.10
2018-01-25T02:51:21.902Z,2.70
2018-01-25T02:53:49.449Z,3.30
2018-01-25T02:56:16.911Z,2.97
2018-01-25T02:58:44.394Z,2.93
2018-01-25T03:01:11.844Z,3.20
2018-01-25T03:03:39.319Z,2.90
2018-01-25T03:06:08.205Z,3.40
2018-01-25T03:08:35.659Z,2.83
2018-01-25T03:11:03.146Z,3.27
2018-01-25T03:13:30.633Z,3.33
2018-01-25T03:15:58.111Z,3.00
2018-01-25T03:18:25.683Z,3.60
2018-01-25T03:20:53.173Z,2.80
2018-01-25T03:23:20.646Z,3.03
2018-01-25T03:25:48.117Z,3.13
2018-01-25T03:28:15.611Z,3.17
2018-01-25T03:30:43.186Z,2.73
2018-01-25T03:33:10.647Z,3.37
2018-01-25T03:35:38.174Z,3.00
2018-01-25T03:38:05.672Z,2.97
2018-01-25T03:40:33.184Z,3.00
2018-01-25T03:43:00.766Z,2.77
2018-01-25T03:45:28.439Z,3.20
2018-01-25T03:47:55.917Z,2.90
2018-01-25T03:50:23.392Z,3.07
2018-01-25T03:52:50.854Z,3.13
2018-01-25T03:55:18.372Z,3.20
2018-01-25T03:57:45.868Z,3.30
2018-01-25T04:00:13.361Z,3.10
2018-01-25T04:02:40.844Z,3.27
2018-01-25T04:05:08.364Z,3.27
2018-01-25T04:07:36.702Z,3.40
2018-01-25T04:10:04.195Z,3.33
2018-01-25T04:12:31.686Z,3.47
2018-01-25T04:14:59.175Z,3.53
2018-01-25T04:17:26.630Z,3.43
2018-01-25T04:19:54.127Z,3.30
2018-01-25T04:22:21.618Z,3.50
2018-01-25T04:24:49.125Z,3.33
2018-01-25T04:27:16.709Z,3.07
2018-01-25T04:29:44.222Z,3.53
2018-01-25T04:32:11.785Z,2.97
2018-01-25T04:34:39.289Z,3.43
2018-01-25T04:37:06.746Z,3.33
2018-01-25T04:39:34.239Z,3.03
2018-01-25T04:42:01.735Z,3.13
2018-01-25T04:44:29.219Z,3.43
2018-01-25T04:46:56.719Z,3.40
2018-01-25T04:49:24.180Z,3.27
2018-01-25T04:51:51.651Z,3.03
2018-01-25T04:54:19.146Z,3.60
2018-01-25T04:56:46.598Z,3.40
2018-01-25T04:59:14.088Z,3.60
2018-01-25T05:01:41.594Z,3.40
2018-01-25T05:04:09.134Z,3.13
2018-01-25T05:06:36.607Z,3.57
2018-01-25T05:09:04.117Z,3.20
2018-01-25T05:11:31.652Z,3.10
2018-01-25T05:13:59.157Z,3.43
2018-01-25T05:16:27.552Z,3.50
2018-01-25T05:18:55.056Z,3.67
2018-01-25T05:21:22.582Z,3.30
2018-01-25T05:23:50.066Z,3.40
2018-01-25T05:26:17.629Z,3.33
2018-01-25T05:28:45.138Z,3.30
2018-01-25T05:31:12.595Z,3.70
2018-01-25T05:33:40.117Z,3.53
2018-01-25T05:36:07.611Z,3.63
2018-01-25T05:38:35.124Z,3.47
2018-01-25T05:41:02.575Z,3.43
2018-01-25T05:43:30.144Z,3.27
2018-01-25T05:45:57.611Z,3.43
2018-01-25T05:48:25.091Z,3.43
2018-01-25T05:50:52.554Z,3.50
2018-01-25T05:53:20.017Z,3.50
2018-01-25T05:55:47.599Z,3.73
2018-01-25T05:58:15.091Z,3.70
2018-01-25T06:00:42.575Z,3.50
2018-01-25T06:03:10.047Z,3.20
2018-01-25T06:05:37.501Z,3.53
2018-01-25T06:08:05.008Z,3.00
2018-01-25T06:10:32.494Z,3.40
2018-01-25T06:12:59.980Z,3.27
2018-01-25T06:15:27.428Z,3.20
2018-01-25T06:17:54.906Z,3.50
2018-01-25T06:20:22.366Z,3.27
2018-01-25T06:22:50.550Z,3.50
2018-01-25T06:25:18.021Z,3.47
2018-01-25T06:27:45.502Z,3.40
2018-01-25T06:30:13.183Z,3.80
2018-01-25T06:32:40.654Z,3.40
2018-01-25T06:35:08.164Z,3.43
2018-01-25T06:37:35.657Z,3.40
2018-01-25T06:40:03.279Z,3.87
2018-01-25T06:42:30.741Z,3.47
2018-01-25T06:45:02.144Z,3.80
2018-01-25T06:47:29.657Z,3.10
2018-01-25T06:49:57.175Z,3.47
2018-01-25T06:52:24.761Z,3.33
2018-01-25T06:54:54.108Z,3.60
2018-01-25T06:57:21.625Z,3.40
2018-01-25T06:59:49.226Z,3.47
2018-01-25T07:02:16.687Z,3.60
2018-01-25T07:04:44.258Z,3.00
2018-01-25T07:07:11.769Z,3.40
2018-01-25T07:09:39.251Z,3.57
2018-01-25T07:12:06.721Z,3.40
2018-01-25T07:14:34.242Z,3.70
2018-01-25T07:17:01.774Z,3.33
2018-01-25T07:19:29.342Z,3.90
2018-01-25T07:22:02.236Z,4.00
2018-01-25T07:24:29.699Z,3.50
2018-01-25T07:26:57.160Z,3.27
2018-01-25T07:29:24.758Z,4.00
2018-01-25T07:31:52.241Z,3.87
2018-01-25T07:34:19.719Z,3.57
2018-01-25T07:36:47.291Z,3.23
2018-01-25T07:39:14.827Z,3.50
2018-01-25T07:41:42.524Z,3.80
2018-01-25T07:44:10.043Z,3.47
2018-01-25T07:46:37.653Z,3.93
2018-01-25T07:49:05.156Z,3.50
2018-01-25T07:51:32.965Z,3.70
2018-01-25T07:54:00.630Z,3.53
2018-01-25T07:56:28.204Z,3.97
2018-01-25T07:58:55.776Z,3.63
2018-01-25T08:01:23.295Z,3.77
2018-01-25T08:03:50.850Z,3.70
2018-01-25T08:06:18.386Z,3.90
2018-01-25T08:08:45.902Z,3.63
2018-01-25T08:11:13.504Z,3.87
2018-01-25T08:13:41.094Z,3.93
2018-01-25T08:16:14.176Z,3.40
2018-01-25T08:18:41.659Z,3.47
2018-01-25T08:21:09.151Z,3.60
2018-01-25T08:23:36.672Z,3.70
2018-01-25T08:26:04.252Z,3.43
2018-01-25T08:28:31.748Z,3.40
2018-01-25T08:30:59.234Z,3.80
2018-01-25T08:33:26.782Z,3.87
2018-01-25T08:35:54.285Z,3.53
2018-01-25T08:38:21.739Z,3.90
2018-01-25T08:40:49.396Z,3.70
2018-01-25T08:43:16.959Z,3.63
2018-01-25T08:45:44.424Z,3.20
2018-01-25T08:48:11.937Z,3.50
2018-01-25T08:50:39.511Z,3.80
2018-01-25T08:53:07.171Z,4.00
2018-01-25T08:55:35.099Z,3.70
2018-01-25T08:58:02.716Z,3.80
2018-01-25T09:00:30.254Z,4.13
2018-01-25T09:02:57.827Z,3.77
2018-01-25T09:05:25.364Z,3.63
2018-01-25T09:07:52.828Z,3.90
2018-01-25T09:10:20.339Z,3.47
2018-01-25T09:12:47.858Z,3.87
2018-01-25T09:15:15.409Z,3.70
2018-01-25T09:17:42.997Z,3.77
2018-01-25T09:20:10.479Z,3.80
2018-01-25T09:22:37.981Z,3.70
2018-01-25T09:25:05.603Z,3.73
2018-01-25T09:27:33.099Z,4.00
2018-01-25T09:30:00.610Z,3.87
2018-01-25T09:32:28.082Z,4.20
2018-01-25T09:34:55.545Z,3.73
2018-01-25T09:37:23.025Z,3.40
2018-01-25T09:39:50.502Z,3.60
2018-01-25T09:42:17.987Z,3.90
2018-01-25T09:44:45.461Z,3.73
2018-01-25T09:47:12.925Z,3.70
2018-01-25T09:49:40.446Z,3.40
2018-01-25T09:52:07.945Z,3.43
2018-01-25T09:54:35.403Z,3.50
2018-01-25T09:57:02.919Z,3.87
2018-01-25T09:59:30.389Z,3.50
2018-01-25T10:01:57.905Z,3.40
2018-01-25T10:04:25.634Z,3.43
2018-01-25T10:06:53.461Z,3.50
2018-01-25T10:09:21.029Z,3.63
2018-01-25T10:11:48.549Z,3.70
2018-01-25T10:14:16.066Z,3.53
2018-01-25T10:16:43.569Z,3.47
2018-01-25T10:19:11.084Z,3.60
2018-01-25T10:21:38.593Z,3.80
2018-01-25T10:24:06.081Z,3.77
2018-01-25T10:26:33.800Z,3.80
2018-01-25T10:29:01.326Z,4.67
2018-01-25T10:31:29.026Z,3.60
2018-01-25T10:33:56.576Z,3.63
2018-01-25T10:36:24.200Z,4.30
2018-01-25T10:38:51.716Z,3.83
2018-01-25T10:41:19.262Z,3.73
2018-01-25T10:43:46.833Z,3.60
2018-01-25T10:46:14.324Z,3.53
2018-01-25T10:48:41.840Z,3.27
2018-01-25T10:51:09.444Z,3.87
2018-01-25T10:53:36.989Z,3.27
2018-01-25T10:56:04.515Z,3.73
2018-01-25T10:58:32.033Z,3.23
2018-01-25T11:01:05.189Z,3.50
2018-01-25T11:03:32.753Z,3.57
2018-01-25T11:06:00.242Z,3.63
2018-01-25T11:08:27.727Z,3.60
2018-01-25T11:10:55.269Z,3.50
2018-01-25T11:13:22.971Z,3.50
2018-01-25T11:15:50.481Z,3.40
2018-01-25T11:18:17.960Z,3.63
2018-01-25T11:20:45.759Z,3.67
2018-01-25T11:23:14.121Z,3.57
2018-01-25T11:25:42.410Z,3.77
2018-01-25T11:28:09.897Z,3.47
2018-01-25T11:30:37.399Z,3.90
2018-01-25T11:33:10.032Z,4.00
2018-01-25T11:35:37.590Z,3.93
2018-01-25T11:38:05.117Z,3.80
2018-01-25T11:40:33.406Z,3.70
2018-01-25T11:43:00.895Z,3.40
2018-01-25T11:45:28.406Z,3.60
2018-01-25T11:47:55.873Z,3.43
2018-01-25T11:50:23.540Z,3.67
2018-01-25T11:52:51.041Z,3.53
2018-01-25T11:55:18.596Z,3.30
2018-01-25T11:57:46.190Z,3.60
2018-01-25T12:00:13.791Z,3.47
2018-01-25T12:02:41.355Z,3.70
2018-01-25T12:05:08.897Z,3.50
2018-01-25T12:07:36.384Z,3.87
2018-01-25T12:10:03.874Z,3.90
2018-01-25T12:12:31.405Z,4.10
2018-01-25T12:14:59.060Z,3.80
2018-01-25T12:17:26.570Z,4.10
2018-01-25T12:19:54.131Z,4.50
2018-01-25T12:22:21.663Z,4.33
2018-01-25T12:24:49.168Z,4.30
2018-01-25T12:27:16.643Z,4.20
2018-01-25T12:29:44.150Z,4.53
2018-01-25T12:32:11.675Z,4.60
2018-01-25T12:34:39.610Z,4.87
2018-01-25T12:37:07.104Z,5.07
2018-01-25T12:39:34.607Z,4.60
2018-01-25T12:42:02.119Z,6.27
2018-01-25T12:44:31.017Z,6.77
2018-01-25T12:46:58.519Z,6.20
2018-01-25T12:49:28.675Z,7.10
2018-01-25T12:51:57.272Z,6.50
2018-01-25T12:54:25.420Z,6.17
2018-01-25T12:56:52.899Z,6.13
2018-01-25T12:59:20.388Z,6.40
2018-01-25T13:01:47.846Z,6.47
2018-01-25T13:04:15.326Z,5.83
2018-01-25T13:06:42.805Z,5.30
2018-01-25T13:09:10.381Z,4.60
2018-01-25T13:11:38.040Z,4.50
2018-01-25T13:14:05.923Z,4.20
2018-01-25T13:16:33.392Z,3.80
2018-01-25T13:19:01.116Z,3.60
2018-01-25T13:21:28.631Z,3.70
2018-01-25T13:23:56.113Z,3.70
2018-01-25T13:26:23.723Z,3.60
2018-01-25T13:28:51.739Z,3.43
2018-01-25T13:31:19.227Z,3.60
2018-01-25T13:34:00.923Z,3.67
2018-01-25T13:36:28.688Z,3.60
2018-01-25T13:38:56.522Z,3.77
2018-01-25T13:41:31.690Z,3.63
2018-01-25T13:43:59.299Z,3.50
2018-01-25T13:46:26.797Z,3.60
2018-01-25T13:48:54.522Z,3.60
2018-01-25T13:51:22.066Z,4.10
2018-01-25T13:54:08.906Z,4.40
2018-01-25T13:56:36.405Z,3.90
2018-01-25T13:59:04.083Z,4.30
2018-01-25T14:01:31.686Z,4.33
2018-01-25T14:03:59.197Z,4.87
2018-01-25T14:06:27.461Z,8.53
2018-01-25T14:08:55.086Z,9.33
2018-01-25T14:11:22.615Z,6.80
2018-01-25T14:13:50.125Z,6.20
2018-01-25T14:16:17.599Z,5.57
2018-01-25T14:18:45.357Z,4.87
2018-01-25T14:21:13.124Z,5.33
2018-01-25T14:23:45.778Z,5.03
2018-01-25T14:26:13.327Z,5.33
2018-01-25T14:28:40.800Z,5.47
2018-01-25T14:31:08.269Z,5.13
2018-01-25T14:33:55.322Z,4.87
2018-01-25T14:36:22.864Z,5.43
2018-01-25T14:38:50.438Z,5.50
2018-01-25T14:41:18.178Z,5.50
2018-01-25T14:43:45.734Z,5.57
2018-01-25T14:46:13.261Z,5.00
2018-01-25T14:48:41.152Z,6.03
2018-01-25T14:51:08.620Z,5.53
2018-01-25T14:53:36.864Z,5.37
2018-01-25T14:56:05.008Z,5.43
2018-01-25T14:58:32.684Z,5.03
2018-01-25T15:01:01.122Z,5.93
2018-01-25T15:03:28.588Z,5.20
2018-01-25T15:05:56.051Z,5.10
2018-01-25T15:08:23.560Z,4.70
2018-01-25T15:10:51.986Z,5.53
2018-01-25T15:13:19.502Z,4.27
2018-01-25T15:15:47.910Z,5.40
2018-01-25T15:18:16.280Z,5.20
2018-01-25T15:20:43.846Z,4.90
2018-01-25T15:23:11.355Z,4.90
2018-01-25T15:25:44.480Z,5.17
2018-01-25T15:28:11.958Z,5.60
2018-01-25T15:30:39.494Z,5.70
2018-01-25T15:33:07.130Z,5.30
2018-01-25T15:35:34.620Z,5.43
2018-01-25T15:38:02.101Z,5.77
2018-01-25T15:40:29.610Z,5.80
2018-01-25T15:42:57.109Z,6.20
2018-01-25T15:45:24.568Z,5.40
2018-01-25T15:47:52.025Z,5.80
2018-01-25T15:50:19.518Z,5.93
2018-01-25T15:52:47.034Z,6.60
2018-01-25T15:55:15.602Z,7.00
2018-01-25T15:57:43.195Z,6.53
2018-01-25T16:00:10.700Z,7.77
2018-01-25T16:02:38.495Z,19.17
2018-01-25T16:05:05.972Z,15.60
2018-01-25T16:07:33.447Z,14.87
2018-01-25T16:10:01.168Z,16.43
2018-01-25T16:12:28.651Z,13.43
2018-01-25T16:14:56.164Z,9.77
2018-01-25T16:17:23.615Z,7.57
2018-01-25T16:19:51.127Z,6.60
2018-01-25T16:22:18.585Z,7.10
2018-01-25T16:24:46.164Z,7.33
2018-01-25T16:27:13.671Z,7.00
2018-01-25T16:29:41.132Z,7.03
2018-01-25T16:32:08.758Z,7.97
2018-01-25T16:34:36.268Z,7.13
2018-01-25T16:37:03.815Z,6.73
2018-01-25T16:39:31.360Z,6.67
2018-01-25T16:41:58.920Z,6.80
2018-01-25T16:44:26.471Z,7.10
2018-01-25T16:46:54.002Z,5.93
2018-01-25T16:49:21.564Z,6.63
2018-01-25T16:51:49.095Z,6.63
2018-01-25T16:54:16.626Z,6.43
2018-01-25T16:56:44.146Z,6.10
2018-01-25T16:59:11.716Z,5.90
2018-01-25T17:01:39.295Z,5.30
2018-01-25T17:04:06.759Z,5.73
2018-01-25T17:06:34.274Z,5.83
2018-01-25T17:09:01.841Z,5.40
2018-01-25T17:11:29.375Z,5.90
2018-01-25T17:13:56.884Z,5.80
2018-01-25T17:16:24.397Z,5.53
2018-01-25T17:18:51.938Z,6.23
2018-01-25T17:21:19.434Z,6.10
2018-01-25T17:23:46.966Z,6.20
2018-01-25T17:26:14.682Z,6.13
2018-01-25T17:28:42.213Z,5.47
2018-01-25T17:31:09.991Z,6.23
2018-01-25T17:33:37.573Z,5.93
2018-01-25T17:36:06.096Z,5.83
2018-01-25T17:38:33.687Z,5.60
2018-01-25T17:41:01.529Z,5.50
2018-01-25T17:43:29.153Z,5.40
2018-01-25T17:45:56.755Z,5.63
2018-01-25T17:48:24.258Z,5.23
2018-01-25T17:50:51.757Z,5.40
2018-01-25T17:53:19.228Z,5.00
2018-01-25T17:55:46.768Z,5.23
2018-01-25T17:58:14.366Z,5.37
2018-01-25T18:00:41.916Z,5.00
2018-01-25T18:03:09.581Z,5.20
2018-01-25T18:05:37.268Z,5.77
2018-01-25T18:08:04.736Z,6.30
2018-01-25T18:10:32.513Z,5.87
2018-01-25T18:13:00.008Z,6.10
2018-01-25T18:15:27.568Z,6.03
2018-01-25T18:17:55.130Z,6.43
2018-01-25T18:20:22.640Z,6.33
2018-01-25T18:23:09.562Z,5.83
2018-01-25T18:25:37.085Z,5.07
2018-01-25T18:28:04.675Z,5.90
2018-01-25T18:30:32.179Z,5.60
2018-01-25T18:32:59.717Z,5.53
2018-01-25T18:35:27.255Z,5.70
2018-01-25T18:37:54.796Z,5.60
2018-01-25T18:40:22.378Z,5.40
2018-01-25T18:42:49.984Z,4.80
2018-01-25T18:45:17.523Z,5.70
2018-01-25T18:47:45.081Z,5.57
2018-01-25T18:50:12.636Z,5.17
2018-01-25T18:52:40.140Z,5.83
2018-01-25T18:55:07.653Z,5.70
2018-01-25T18:57:35.213Z,5.33
2018-01-25T19:00:02.785Z,5.87
2018-01-25T19:02:30.339Z,5.50
2018-01-25T19:04:57.916Z,5.83
2018-01-25T19:07:25.428Z,5.47
2018-01-25T19:09:52.978Z,5.63
2018-01-25T19:12:25.527Z,6.33
2018-01-25T19:14:53.106Z,6.17
2018-01-25T19:17:20.647Z,6.47
2018-01-25T19:19:48.486Z,6.40
2018-01-25T19:22:16.115Z,6.47
2018-01-25T19:24:43.647Z,6.70
2018-01-25T19:27:11.305Z,6.77
2018-01-25T19:29:38.819Z,6.93
2018-01-25T19:32:06.454Z,7.00
2018-01-25T19:34:34.035Z,7.00
2018-01-25T19:37:01.587Z,8.00
2018-01-25T19:39:29.425Z,8.23
2018-01-25T19:41:57.037Z,7.37
2018-01-25T19:44:24.593Z,7.90
2018-01-25T19:46:52.224Z,7.53
2018-01-25T19:49:19.918Z,7.20
2018-01-25T19:51:48.545Z,7.57
2018-01-25T19:54:16.106Z,6.57
2018-01-25T19:56:43.619Z,6.37
2018-01-25T19:59:11.125Z,6.40
2018-01-25T20:01:38.710Z,6.57
2018-01-25T20:04:06.268Z,6.40
2018-01-25T20:06:33.990Z,6.03
2018-01-25T20:09:01.553Z,5.90
2018-01-25T20:11:29.061Z,5.73
2018-01-25T20:13:56.646Z,5.93
2018-01-25T20:16:24.134Z,5.93
2018-01-25T20:18:51.708Z,6.47
2018-01-25T20:21:19.222Z,6.40
2018-01-25T20:23:48.298Z,6.33
2018-01-25T20:26:15.768Z,6.23
2018-01-25T20:28:43.268Z,7.67
2018-01-25T20:31:10.784Z,6.80
2018-01-25T20:33:38.310Z,7.13
2018-01-25T20:36:05.871Z,7.57
2018-01-25T20:38:33.424Z,8.07
2018-01-25T20:41:01.536Z,7.60
2018-01-25T20:43:29.050Z,8.27
2018-01-25T20:45:56.694Z,8.77
2018-01-25T20:48:24.245Z,8.73
2018-01-25T20:50:51.805Z,8.63
2018-01-25T20:53:24.437Z,7.97
2018-01-25T20:55:52.035Z,8.30
2018-01-25T20:58:19.531Z,8.10
2018-01-25T21:00:47.979Z,8.83
2018-01-25T21:03:15.471Z,8.70
2018-01-25T21:05:43.066Z,8.33
2018-01-25T21:08:10.649Z,8.40
2018-01-25T21:10:38.161Z,9.27
2018-01-25T21:13:05.726Z,8.77
2018-01-25T21:15:33.268Z,10.03
2018-01-25T21:18:00.820Z,10.13
2018-01-25T21:20:28.412Z,8.63
2018-01-25T21:22:56.011Z,8.43
2018-01-25T21:25:23.484Z,9.63
2018-01-25T21:27:50.980Z,8.87
2018-01-25T21:30:18.457Z,8.87
2018-01-25T21:32:46.205Z,9.10
2018-01-25T21:35:13.808Z,8.90
2018-01-25T21:37:41.313Z,8.33
2018-01-25T21:40:08.848Z,8.23
2018-01-25T21:42:36.391Z,8.50
2018-01-25T21:45:03.924Z,8.50
2018-01-25T21:47:31.523Z,8.23
2018-01-25T21:49:59.332Z,9.20
2018-01-25T21:52:26.845Z,9.10
2018-01-25T21:54:55.860Z,8.80
2018-01-25T21:57:24.574Z,8.90
2018-01-25T21:59:54.964Z,8.93
2018-01-25T22:02:22.604Z,9.03
2018-01-25T22:04:50.184Z,9.20
2018-01-25T22:07:18.277Z,9.10
2018-01-25T22:09:45.769Z,8.37
2018-01-25T22:12:13.658Z,8.73
2018-01-25T22:14:41.277Z,8.27
2018-01-25T22:17:08.772Z,9.07
2018-01-25T22:19:36.394Z,8.80
2018-01-25T22:22:03.852Z,8.90
2018-01-25T22:24:31.352Z,8.80
2018-01-25T22:26:58.823Z,9.13
2018-01-25T22:29:26.378Z,8.87
2018-01-25T22:31:53.865Z,9.13
2018-01-25T22:34:21.456Z,8.70
2018-01-25T22:36:49.000Z,9.50
2018-01-25T22:39:16.503Z,10.20
2018-01-25T22:41:43.993Z,10.33
2018-01-25T22:44:11.451Z,9.27
2018-01-25T22:46:39.280Z,9.60
2018-01-25T22:49:06.949Z,9.47
2018-01-25T22:51:34.422Z,10.10
2018-01-25T22:54:01.947Z,9.73
2018-01-25T22:56:29.510Z,10.07
2018-01-25T22:58:57.195Z,9.60
2018-01-25T23:01:24.816Z,9.50
2018-01-25T23:03:58.918Z,8.77
2018-01-25T23:06:26.429Z,9.57
2018-01-25T23:08:54.032Z,8.03
2018-01-25T23:11:22.345Z,7.67
2018-01-25T23:13:49.871Z,7.80
2018-01-25T23:16:17.823Z,7.30
2018-01-25T23:18:45.935Z,7.53
2018-01-25T23:21:13.552Z,7.70
2018-01-25T23:23:41.133Z,8.00
2018-01-25T23:26:08.828Z,7.97
2018-01-25T23:28:36.458Z,7.33
2018-01-25T23:31:03.977Z,8.00
2018-01-25T23:33:31.474Z,7.30
2018-01-25T23:35:58.983Z,7.37
2018-01-25T23:38:35.037Z,8.00
2018-01-25T23:41:02.865Z,6.87
2018-01-25T23:43:31.345Z,6.97
2018-01-25T23:45:58.896Z,7.67
2018-01-25T23:48:26.520Z,7.40
2018-01-25T23:50:54.120Z,7.60
2018-01-25T23:53:21.660Z,7.23
2018-01-25T23:55:49.151Z,7.40
2018-01-25T23:58:16.631Z,6.80
